sensor_id;sensor_type;location;lat;lon;timestamp;temperature;humidity
5792;DHT22;2922;53.482;10.006;2024-03-22T00:01:48;8.70;99.90
5792;DHT22;2922;53.482;10.006;2024-03-22T00:04:14;8.70;99.90
5792;DHT22;2922;53.482;10.006;2024-03-22T00:06:41;8.80;99.90
5792;DHT22;2922;53.482;10.006;2024-03-22T00:09:07;8.80;99.90
5792;DHT22;2922;53.482;10.006;2024-03-22T00:11:32;8.80;99.90
5792;DHT22;2922;53.482;10.006;2024-03-22T00:13:58;8.80;99.90
5792;DHT22;2922;53.482;10.006;2024-03-22T00:16:24;8.80;99.90
5792;DHT22;2922;53.482;10.006;2024-03-22T00:18:49;8.80;99.90
5792;DHT22;2922;53.482;10.006;2024-03-22T00:21:15;8.80;99.90
5792;DHT22;2922;53.482;10.006;2024-03-22T00:23:40;8.80;99.90
5792;DHT22;2922;53.482;10.006;2024-03-22T00:26:07;8.80;99.90
5792;DHT22;2922;53.482;10.006;2024-03-22T00:28:33;8.90;99.90
5792;DHT22;2922;53.482;10.006;2024-03-22T00:30:58;8.90;99.90
5792;DHT22;2922;53.482;10.006;2024-03-22T00:33:24;8.90;99.90
5792;DHT22;2922;53.482;10.006;2024-03-22T00:35:50;8.90;99.90
5792;DHT22;2922;53.482;10.006;2024-03-22T00:38:15;8.90;99.90
5792;DHT22;2922;53.482;10.006;2024-03-22T00:40:41;8.90;99.90
5792;DHT22;2922;53.482;10.006;2024-03-22T00:43:07;8.90;99.90
5792;DHT22;2922;53.482;10.006;2024-03-22T00:45:32;8.90;99.90
5792;DHT22;2922;53.482;10.006;2024-03-22T00:47:58;8.90;99.90
5792;DHT22;2922;53.482;10.006;2024-03-22T00:50:23;8.90;99.90
5792;DHT22;2922;53.482;10.006;2024-03-22T00:52:50;8.90;99.90
5792;DHT22;2922;53.482;10.006;2024-03-22T00:55:16;8.90;99.90
5792;DHT22;2922;53.482;10.006;2024-03-22T00:57:41;8.90;99.90
5792;DHT22;2922;53.482;10.006;2024-03-22T01:00:07;8.90;99.90
5792;DHT22;2922;53.482;10.006;2024-03-22T01:02:33;8.90;99.90
5792;DHT22;2922;53.482;10.006;2024-03-22T01:04:58;8.90;99.90
5792;DHT22;2922;53.482;10.006;2024-03-22T01:07:24;8.90;99.90
5792;DHT22;2922;53.482;10.006;2024-03-22T01:09:49;8.90;99.90
5792;DHT22;2922;53.482;10.006;2024-03-22T01:12:15;8.90;99.90
5792;DHT22;2922;53.482;10.006;2024-03-22T01:14:40;8.90;99.90
5792;DHT22;2922;53.482;10.006;2024-03-22T01:17:06;8.90;99.90
5792;DHT22;2922;53.482;10.006;2024-03-22T01:19:31;8.90;99.90
5792;DHT22;2922;53.482;10.006;2024-03-22T01:21:56;8.90;99.90
5792;DHT22;2922;53.482;10.006;2024-03-22T01:24:22;8.90;99.90
5792;DHT22;2922;53.482;10.006;2024-03-22T01:26:47;8.90;99.90
5792;DHT22;2922;53.482;10.006;2024-03-22T01:29:16;8.90;99.90
5792;DHT22;2922;53.482;10.006;2024-03-22T01:31:41;8.90;99.90
5792;DHT22;2922;53.482;10.006;2024-03-22T01:34:07;8.90;99.90
5792;DHT22;2922;53.482;10.006;2024-03-22T01:36:33;8.90;99.90
5792;DHT22;2922;53.482;10.006;2024-03-22T01:38:58;9.00;99.90
5792;DHT22;2922;53.482;10.006;2024-03-22T01:41:24;8.90;99.90
5792;DHT22;2922;53.482;10.006;2024-03-22T01:43:49;8.90;99.90
5792;DHT22;2922;53.482;10.006;2024-03-22T01:46:15;9.00;99.90
5792;DHT22;2922;53.482;10.006;2024-03-22T01:48:40;9.00;99.90
5792;DHT22;2922;53.482;10.006;2024-03-22T01:51:06;9.00;99.90
5792;DHT22;2922;53.482;10.006;2024-03-22T01:53:33;9.00;99.90
5792;DHT22;2922;53.482;10.006;2024-03-22T01:56:00;9.00;99.90
5792;DHT22;2922;53.482;10.006;2024-03-22T01:58:25;9.00;99.90
5792;DHT22;2922;53.482;10.006;2024-03-22T02:00:51;9.00;99.90
5792;DHT22;2922;53.482;10.006;2024-03-22T02:03:16;9.00;99.90
5792;DHT22;2922;53.482;10.006;2024-03-22T02:05:42;9.00;99.90
5792;DHT22;2922;53.482;10.006;2024-03-22T02:08:07;9.00;99.90
5792;DHT22;2922;53.482;10.006;2024-03-22T02:10:33;9.00;99.90
5792;DHT22;2922;53.482;10.006;2024-03-22T02:12:59;9.00;99.90
5792;DHT22;2922;53.482;10.006;2024-03-22T02:15:24;9.00;99.90
5792;DHT22;2922;53.482;10.006;2024-03-22T02:17:50;9.00;99.90
5792;DHT22;2922;53.482;10.006;2024-03-22T02:20:15;9.10;99.90
5792;DHT22;2922;53.482;10.006;2024-03-22T02:22:41;9.10;99.90
5792;DHT22;2922;53.482;10.006;2024-03-22T02:25:06;9.10;99.90
5792;DHT22;2922;53.482;10.006;2024-03-22T02:27:33;9.10;99.90
5792;DHT22;2922;53.482;10.006;2024-03-22T02:29:59;9.10;99.90
5792;DHT22;2922;53.482;10.006;2024-03-22T02:32:24;9.10;99.90
5792;DHT22;2922;53.482;10.006;2024-03-22T02:34:50;9.10;99.90
5792;DHT22;2922;53.482;10.006;2024-03-22T02:37:15;9.10;99.90
5792;DHT22;2922;53.482;10.006;2024-03-22T02:39:41;9.10;99.90
5792;DHT22;2922;53.482;10.006;2024-03-22T02:42:07;9.10;99.90
5792;DHT22;2922;53.482;10.006;2024-03-22T02:44:32;9.20;99.90
5792;DHT22;2922;53.482;10.006;2024-03-22T02:46:58;9.20;99.90
5792;DHT22;2922;53.482;10.006;2024-03-22T02:49:25;9.20;99.90
5792;DHT22;2922;53.482;10.006;2024-03-22T02:51:50;9.20;99.90
5792;DHT22;2922;53.482;10.006;2024-03-22T02:54:16;9.20;99.90
5792;DHT22;2922;53.482;10.006;2024-03-22T02:56:41;9.30;99.90
5792;DHT22;2922;53.482;10.006;2024-03-22T02:59:07;9.30;99.90
5792;DHT22;2922;53.482;10.006;2024-03-22T03:01:32;9.30;99.90
5792;DHT22;2922;53.482;10.006;2024-03-22T03:03:58;9.30;99.90
5792;DHT22;2922;53.482;10.006;2024-03-22T03:06:23;9.30;99.90
5792;DHT22;2922;53.482;10.006;2024-03-22T03:08:49;9.30;99.90
5792;DHT22;2922;53.482;10.006;2024-03-22T03:11:15;9.30;99.90
5792;DHT22;2922;53.482;10.006;2024-03-22T03:13:40;9.30;99.90
5792;DHT22;2922;53.482;10.006;2024-03-22T03:16:06;9.40;99.90
5792;DHT22;2922;53.482;10.006;2024-03-22T03:18:31;9.40;99.90
5792;DHT22;2922;53.482;10.006;2024-03-22T03:20:57;9.40;99.90
5792;DHT22;2922;53.482;10.006;2024-03-22T03:23:22;9.40;99.90
5792;DHT22;2922;53.482;10.006;2024-03-22T03:25:48;9.40;99.90
5792;DHT22;2922;53.482;10.006;2024-03-22T03:28:14;9.40;99.90
5792;DHT22;2922;53.482;10.006;2024-03-22T03:30:39;9.50;99.90
5792;DHT22;2922;53.482;10.006;2024-03-22T03:33:05;9.50;99.90
5792;DHT22;2922;53.482;10.006;2024-03-22T03:35:30;9.50;99.90
5792;DHT22;2922;53.482;10.006;2024-03-22T03:37:56;9.50;99.90
5792;DHT22;2922;53.482;10.006;2024-03-22T03:40:22;9.50;99.90
5792;DHT22;2922;53.482;10.006;2024-03-22T03:42:50;9.50;99.90
5792;DHT22;2922;53.482;10.006;2024-03-22T03:45:16;9.50;99.90
5792;DHT22;2922;53.482;10.006;2024-03-22T03:47:41;9.50;99.90
5792;DHT22;2922;53.482;10.006;2024-03-22T03:50:07;9.50;99.90
5792;DHT22;2922;53.482;10.006;2024-03-22T03:52:32;9.60;99.90
5792;DHT22;2922;53.482;10.006;2024-03-22T03:54:58;9.50;99.90
5792;DHT22;2922;53.482;10.006;2024-03-22T03:57:23;9.60;99.90
5792;DHT22;2922;53.482;10.006;2024-03-22T03:59:49;9.60;99.90
5792;DHT22;2922;53.482;10.006;2024-03-22T04:02:15;9.60;99.90
5792;DHT22;2922;53.482;10.006;2024-03-22T04:04:40;9.60;99.90
5792;DHT22;2922;53.482;10.006;2024-03-22T04:07:06;9.60;99.90
5792;DHT22;2922;53.482;10.006;2024-03-22T04:09:31;9.60;99.90
5792;DHT22;2922;53.482;10.006;2024-03-22T04:11:57;9.60;99.90
5792;DHT22;2922;53.482;10.006;2024-03-22T04:14:24;9.60;99.90
5792;DHT22;2922;53.482;10.006;2024-03-22T04:16:50;9.60;99.90
5792;DHT22;2922;53.482;10.006;2024-03-22T04:19:15;9.60;99.90
5792;DHT22;2922;53.482;10.006;2024-03-22T04:21:41;9.70;99.90
5792;DHT22;2922;53.482;10.006;2024-03-22T04:24:06;9.70;99.90
5792;DHT22;2922;53.482;10.006;2024-03-22T04:26:32;9.70;99.90
5792;DHT22;2922;53.482;10.006;2024-03-22T04:28:58;9.70;99.90
5792;DHT22;2922;53.482;10.006;2024-03-22T04:31:23;9.70;99.90
5792;DHT22;2922;53.482;10.006;2024-03-22T04:33:49;9.70;99.90
5792;DHT22;2922;53.482;10.006;2024-03-22T04:36:15;9.70;99.90
5792;DHT22;2922;53.482;10.006;2024-03-22T04:38:40;9.70;99.90
5792;DHT22;2922;53.482;10.006;2024-03-22T04:41:06;9.70;99.90
5792;DHT22;2922;53.482;10.006;2024-03-22T04:43:32;9.70;99.90
5792;DHT22;2922;53.482;10.006;2024-03-22T04:45:57;9.70;99.90
5792;DHT22;2922;53.482;10.006;2024-03-22T04:48:23;9.70;99.90
5792;DHT22;2922;53.482;10.006;2024-03-22T04:50:50;9.70;99.90
5792;DHT22;2922;53.482;10.006;2024-03-22T04:53:16;9.70;99.90
5792;DHT22;2922;53.482;10.006;2024-03-22T04:55:45;9.70;99.90
5792;DHT22;2922;53.482;10.006;2024-03-22T04:58:17;9.80;99.90
5792;DHT22;2922;53.482;10.006;2024-03-22T05:00:44;9.80;99.90
5792;DHT22;2922;53.482;10.006;2024-03-22T05:03:09;9.80;99.90
5792;DHT22;2922;53.482;10.006;2024-03-22T05:05:35;9.80;99.90
5792;DHT22;2922;53.482;10.006;2024-03-22T05:08:01;9.80;99.90
5792;DHT22;2922;53.482;10.006;2024-03-22T05:10:27;9.80;99.90
5792;DHT22;2922;53.482;10.006;2024-03-22T05:12:54;9.80;99.90
5792;DHT22;2922;53.482;10.006;2024-03-22T05:15:20;9.90;99.90
5792;DHT22;2922;53.482;10.006;2024-03-22T05:17:45;9.90;99.90
5792;DHT22;2922;53.482;10.006;2024-03-22T05:20:11;9.80;99.90
5792;DHT22;2922;53.482;10.006;2024-03-22T05:22:37;9.80;99.90
5792;DHT22;2922;53.482;10.006;2024-03-22T05:25:03;9.90;99.90
5792;DHT22;2922;53.482;10.006;2024-03-22T05:27:31;9.90;99.90
5792;DHT22;2922;53.482;10.006;2024-03-22T05:29:58;9.90;99.90
5792;DHT22;2922;53.482;10.006;2024-03-22T05:32:24;9.90;99.90
5792;DHT22;2922;53.482;10.006;2024-03-22T05:34:49;9.90;99.90
5792;DHT22;2922;53.482;10.006;2024-03-22T05:37:15;10.00;99.90
5792;DHT22;2922;53.482;10.006;2024-03-22T05:39:40;10.00;99.90
5792;DHT22;2922;53.482;10.006;2024-03-22T05:42:07;10.00;99.90
5792;DHT22;2922;53.482;10.006;2024-03-22T05:44:32;10.00;99.90
5792;DHT22;2922;53.482;10.006;2024-03-22T05:46:58;10.00;99.90
5792;DHT22;2922;53.482;10.006;2024-03-22T05:49:23;10.10;99.90
5792;DHT22;2922;53.482;10.006;2024-03-22T05:51:49;10.10;99.90
5792;DHT22;2922;53.482;10.006;2024-03-22T05:54:14;10.10;99.90
5792;DHT22;2922;53.482;10.006;2024-03-22T05:56:40;10.10;99.90
5792;DHT22;2922;53.482;10.006;2024-03-22T05:59:05;10.20;99.90
5792;DHT22;2922;53.482;10.006;2024-03-22T06:01:31;10.20;99.90
5792;DHT22;2922;53.482;10.006;2024-03-22T06:03:57;10.20;99.90
5792;DHT22;2922;53.482;10.006;2024-03-22T06:06:23;10.20;99.90
5792;DHT22;2922;53.482;10.006;2024-03-22T06:08:51;10.20;99.90
5792;DHT22;2922;53.482;10.006;2024-03-22T06:11:19;10.20;99.90
5792;DHT22;2922;53.482;10.006;2024-03-22T06:13:45;10.20;99.90
5792;DHT22;2922;53.482;10.006;2024-03-22T06:16:10;10.30;99.90
5792;DHT22;2922;53.482;10.006;2024-03-22T06:18:36;10.30;99.90
5792;DHT22;2922;53.482;10.006;2024-03-22T06:21:02;10.30;99.90
5792;DHT22;2922;53.482;10.006;2024-03-22T06:23:28;10.30;99.90
5792;DHT22;2922;53.482;10.006;2024-03-22T06:25:55;10.30;99.90
5792;DHT22;2922;53.482;10.006;2024-03-22T06:28:22;10.30;99.90
5792;DHT22;2922;53.482;10.006;2024-03-22T06:30:48;10.40;99.90
5792;DHT22;2922;53.482;10.006;2024-03-22T06:33:13;10.40;99.90
5792;DHT22;2922;53.482;10.006;2024-03-22T06:35:40;10.40;99.90
5792;DHT22;2922;53.482;10.006;2024-03-22T06:38:06;10.50;99.90
5792;DHT22;2922;53.482;10.006;2024-03-22T06:40:31;10.50;99.90
5792;DHT22;2922;53.482;10.006;2024-03-22T06:42:57;10.50;99.90
5792;DHT22;2922;53.482;10.006;2024-03-22T06:45:23;10.50;99.90
5792;DHT22;2922;53.482;10.006;2024-03-22T06:47:49;10.50;99.90
5792;DHT22;2922;53.482;10.006;2024-03-22T06:50:15;10.60;99.90
5792;DHT22;2922;53.482;10.006;2024-03-22T06:52:43;10.60;99.90
5792;DHT22;2922;53.482;10.006;2024-03-22T06:55:08;10.70;99.90
5792;DHT22;2922;53.482;10.006;2024-03-22T06:57:34;10.60;99.90
5792;DHT22;2922;53.482;10.006;2024-03-22T06:59:59;10.70;99.90
5792;DHT22;2922;53.482;10.006;2024-03-22T07:02:25;10.70;99.90
5792;DHT22;2922;53.482;10.006;2024-03-22T07:04:51;10.70;99.90
5792;DHT22;2922;53.482;10.006;2024-03-22T07:07:17;10.80;99.90
5792;DHT22;2922;53.482;10.006;2024-03-22T07:09:43;10.80;99.90
5792;DHT22;2922;53.482;10.006;2024-03-22T07:12:09;10.80;99.90
5792;DHT22;2922;53.482;10.006;2024-03-22T07:14:34;10.80;99.90
5792;DHT22;2922;53.482;10.006;2024-03-22T07:17:00;10.90;99.90
5792;DHT22;2922;53.482;10.006;2024-03-22T07:19:26;10.90;99.90
5792;DHT22;2922;53.482;10.006;2024-03-22T07:21:52;10.90;99.90
5792;DHT22;2922;53.482;10.006;2024-03-22T07:24:18;11.00;99.90
5792;DHT22;2922;53.482;10.006;2024-03-22T07:26:44;11.00;99.90
5792;DHT22;2922;53.482;10.006;2024-03-22T07:29:09;11.00;99.90
5792;DHT22;2922;53.482;10.006;2024-03-22T07:31:34;11.00;99.90
5792;DHT22;2922;53.482;10.006;2024-03-22T07:34:00;11.00;99.90
5792;DHT22;2922;53.482;10.006;2024-03-22T07:36:26;11.00;99.90
5792;DHT22;2922;53.482;10.006;2024-03-22T07:38:52;11.00;99.90
5792;DHT22;2922;53.482;10.006;2024-03-22T07:41:18;11.00;99.90
5792;DHT22;2922;53.482;10.006;2024-03-22T07:43:43;11.10;99.90
5792;DHT22;2922;53.482;10.006;2024-03-22T07:46:09;11.10;99.90
5792;DHT22;2922;53.482;10.006;2024-03-22T07:48:35;11.10;99.90
5792;DHT22;2922;53.482;10.006;2024-03-22T07:51:01;11.10;99.90
5792;DHT22;2922;53.482;10.006;2024-03-22T07:53:27;11.10;99.90
5792;DHT22;2922;53.482;10.006;2024-03-22T07:55:53;11.20;99.90
5792;DHT22;2922;53.482;10.006;2024-03-22T07:58:19;11.20;99.90
5792;DHT22;2922;53.482;10.006;2024-03-22T08:00:44;11.20;99.90
5792;DHT22;2922;53.482;10.006;2024-03-22T08:03:16;11.20;99.90
5792;DHT22;2922;53.482;10.006;2024-03-22T08:05:42;11.20;99.90
5792;DHT22;2922;53.482;10.006;2024-03-22T08:08:08;11.20;99.90
5792;DHT22;2922;53.482;10.006;2024-03-22T08:10:33;11.20;99.90
5792;DHT22;2922;53.482;10.006;2024-03-22T08:13:00;11.20;99.90
5792;DHT22;2922;53.482;10.006;2024-03-22T08:15:29;11.20;99.90
5792;DHT22;2922;53.482;10.006;2024-03-22T08:17:55;11.20;99.90
5792;DHT22;2922;53.482;10.006;2024-03-22T08:20:23;11.20;99.90
5792;DHT22;2922;53.482;10.006;2024-03-22T08:22:48;11.20;99.90
5792;DHT22;2922;53.482;10.006;2024-03-22T08:25:14;11.20;99.90
5792;DHT22;2922;53.482;10.006;2024-03-22T08:27:43;11.30;99.90
5792;DHT22;2922;53.482;10.006;2024-03-22T08:30:09;11.20;99.90
5792;DHT22;2922;53.482;10.006;2024-03-22T08:32:35;11.20;99.90
5792;DHT22;2922;53.482;10.006;2024-03-22T08:35:00;11.10;99.90
5792;DHT22;2922;53.482;10.006;2024-03-22T08:37:26;11.10;99.90
5792;DHT22;2922;53.482;10.006;2024-03-22T08:39:52;11.10;99.90
5792;DHT22;2922;53.482;10.006;2024-03-22T08:42:17;11.10;99.90
5792;DHT22;2922;53.482;10.006;2024-03-22T08:44:43;11.00;99.90
5792;DHT22;2922;53.482;10.006;2024-03-22T08:47:09;11.00;99.90
5792;DHT22;2922;53.482;10.006;2024-03-22T08:49:35;11.00;99.90
5792;DHT22;2922;53.482;10.006;2024-03-22T08:52:01;11.00;99.90
5792;DHT22;2922;53.482;10.006;2024-03-22T08:54:27;11.00;99.90
5792;DHT22;2922;53.482;10.006;2024-03-22T08:56:53;11.00;99.90
5792;DHT22;2922;53.482;10.006;2024-03-22T08:59:19;11.00;99.90
5792;DHT22;2922;53.482;10.006;2024-03-22T09:01:44;11.00;99.90
5792;DHT22;2922;53.482;10.006;2024-03-22T09:04:10;11.00;99.90
5792;DHT22;2922;53.482;10.006;2024-03-22T09:06:35;11.00;99.90
5792;DHT22;2922;53.482;10.006;2024-03-22T09:09:01;11.00;99.90
5792;DHT22;2922;53.482;10.006;2024-03-22T09:11:29;11.00;99.90
5792;DHT22;2922;53.482;10.006;2024-03-22T09:13:55;11.10;99.90
5792;DHT22;2922;53.482;10.006;2024-03-22T09:16:21;11.10;99.90
5792;DHT22;2922;53.482;10.006;2024-03-22T09:18:46;11.10;99.90
5792;DHT22;2922;53.482;10.006;2024-03-22T09:21:12;11.10;99.90
5792;DHT22;2922;53.482;10.006;2024-03-22T09:23:37;11.10;99.90
5792;DHT22;2922;53.482;10.006;2024-03-22T09:26:03;11.10;99.90
5792;DHT22;2922;53.482;10.006;2024-03-22T09:28:29;11.10;99.90
5792;DHT22;2922;53.482;10.006;2024-03-22T09:30:55;11.10;99.90
5792;DHT22;2922;53.482;10.006;2024-03-22T09:33:20;11.10;99.90
5792;DHT22;2922;53.482;10.006;2024-03-22T09:35:46;11.10;99.90
5792;DHT22;2922;53.482;10.006;2024-03-22T09:38:11;11.00;99.90
5792;DHT22;2922;53.482;10.006;2024-03-22T09:40:40;11.00;99.90
5792;DHT22;2922;53.482;10.006;2024-03-22T09:43:07;11.00;99.90
5792;DHT22;2922;53.482;10.006;2024-03-22T09:45:33;11.00;99.90
5792;DHT22;2922;53.482;10.006;2024-03-22T09:47:59;10.90;99.90
5792;DHT22;2922;53.482;10.006;2024-03-22T09:50:25;11.00;99.90
5792;DHT22;2922;53.482;10.006;2024-03-22T09:52:56;11.00;99.90
5792;DHT22;2922;53.482;10.006;2024-03-22T09:55:23;11.00;99.90
5792;DHT22;2922;53.482;10.006;2024-03-22T09:57:49;10.90;99.90
5792;DHT22;2922;53.482;10.006;2024-03-22T10:00:20;11.00;99.90
5792;DHT22;2922;53.482;10.006;2024-03-22T10:02:47;10.90;99.90
5792;DHT22;2922;53.482;10.006;2024-03-22T10:05:14;11.00;99.90
5792;DHT22;2922;53.482;10.006;2024-03-22T10:07:40;10.90;99.90
5792;DHT22;2922;53.482;10.006;2024-03-22T10:10:05;10.90;99.90
5792;DHT22;2922;53.482;10.006;2024-03-22T10:12:32;10.90;99.90
5792;DHT22;2922;53.482;10.006;2024-03-22T10:14:58;10.90;99.90
5792;DHT22;2922;53.482;10.006;2024-03-22T10:17:26;10.90;99.90
5792;DHT22;2922;53.482;10.006;2024-03-22T10:19:52;10.90;99.90
5792;DHT22;2922;53.482;10.006;2024-03-22T10:22:18;10.90;99.90
5792;DHT22;2922;53.482;10.006;2024-03-22T10:24:44;10.90;99.90
5792;DHT22;2922;53.482;10.006;2024-03-22T10:27:10;10.80;99.90
5792;DHT22;2922;53.482;10.006;2024-03-22T10:29:36;10.90;99.90
5792;DHT22;2922;53.482;10.006;2024-03-22T10:32:02;10.90;99.90
5792;DHT22;2922;53.482;10.006;2024-03-22T10:34:29;10.90;99.90
5792;DHT22;2922;53.482;10.006;2024-03-22T10:36:59;10.80;99.90
5792;DHT22;2922;53.482;10.006;2024-03-22T10:39:26;10.80;99.90
5792;DHT22;2922;53.482;10.006;2024-03-22T10:41:53;10.80;99.90
5792;DHT22;2922;53.482;10.006;2024-03-22T10:44:18;10.80;99.90
5792;DHT22;2922;53.482;10.006;2024-03-22T10:46:45;10.80;99.90
5792;DHT22;2922;53.482;10.006;2024-03-22T10:49:21;10.80;99.90
5792;DHT22;2922;53.482;10.006;2024-03-22T10:51:51;10.80;99.90
5792;DHT22;2922;53.482;10.006;2024-03-22T10:54:25;10.70;99.90
5792;DHT22;2922;53.482;10.006;2024-03-22T10:56:51;10.80;99.90
5792;DHT22;2922;53.482;10.006;2024-03-22T10:59:22;10.80;99.90
5792;DHT22;2922;53.482;10.006;2024-03-22T11:01:49;10.80;99.90
5792;DHT22;2922;53.482;10.006;2024-03-22T11:04:19;10.80;99.90
5792;DHT22;2922;53.482;10.006;2024-03-22T11:06:49;10.80;99.90
5792;DHT22;2922;53.482;10.006;2024-03-22T11:09:21;10.80;99.90
5792;DHT22;2922;53.482;10.006;2024-03-22T11:11:48;10.80;99.90
5792;DHT22;2922;53.482;10.006;2024-03-22T11:14:14;10.80;99.90
5792;DHT22;2922;53.482;10.006;2024-03-22T11:16:43;10.80;99.90
5792;DHT22;2922;53.482;10.006;2024-03-22T11:19:09;10.80;99.90
5792;DHT22;2922;53.482;10.006;2024-03-22T11:21:35;10.80;99.90
5792;DHT22;2922;53.482;10.006;2024-03-22T11:24:01;10.80;99.90
5792;DHT22;2922;53.482;10.006;2024-03-22T11:26:27;10.80;99.90
5792;DHT22;2922;53.482;10.006;2024-03-22T11:28:52;10.80;99.90
5792;DHT22;2922;53.482;10.006;2024-03-22T11:31:18;10.70;99.90
5792;DHT22;2922;53.482;10.006;2024-03-22T11:33:47;10.70;99.90
5792;DHT22;2922;53.482;10.006;2024-03-22T11:36:13;10.70;99.90
5792;DHT22;2922;53.482;10.006;2024-03-22T11:38:39;10.70;99.90
5792;DHT22;2922;53.482;10.006;2024-03-22T11:41:05;10.80;99.90
5792;DHT22;2922;53.482;10.006;2024-03-22T11:43:31;10.70;99.90
5792;DHT22;2922;53.482;10.006;2024-03-22T11:45:57;10.70;99.90
5792;DHT22;2922;53.482;10.006;2024-03-22T11:48:22;10.70;99.90
5792;DHT22;2922;53.482;10.006;2024-03-22T11:50:49;10.80;99.90
5792;DHT22;2922;53.482;10.006;2024-03-22T11:53:18;10.80;99.90
5792;DHT22;2922;53.482;10.006;2024-03-22T11:55:44;10.80;99.90
5792;DHT22;2922;53.482;10.006;2024-03-22T11:58:10;10.80;99.90
5792;DHT22;2922;53.482;10.006;2024-03-22T12:00:36;10.80;99.90
5792;DHT22;2922;53.482;10.006;2024-03-22T12:03:06;10.90;99.90
5792;DHT22;2922;53.482;10.006;2024-03-22T12:05:32;10.90;99.90
5792;DHT22;2922;53.482;10.006;2024-03-22T12:07:58;11.00;99.90
5792;DHT22;2922;53.482;10.006;2024-03-22T12:10:23;10.90;99.90
5792;DHT22;2922;53.482;10.006;2024-03-22T12:12:49;11.00;99.90
5792;DHT22;2922;53.482;10.006;2024-03-22T12:15:14;11.00;99.90
5792;DHT22;2922;53.482;10.006;2024-03-22T12:17:40;11.00;99.90
5792;DHT22;2922;53.482;10.006;2024-03-22T12:20:09;11.10;99.90
5792;DHT22;2922;53.482;10.006;2024-03-22T12:25:02;11.20;99.90
5792;DHT22;2922;53.482;10.006;2024-03-22T12:27:29;11.20;99.90
5792;DHT22;2922;53.482;10.006;2024-03-22T12:29:55;11.20;99.90
5792;DHT22;2922;53.482;10.006;2024-03-22T12:32:20;11.20;99.90
5792;DHT22;2922;53.482;10.006;2024-03-22T12:34:46;11.20;99.90
5792;DHT22;2922;53.482;10.006;2024-03-22T12:37:11;11.20;99.90
5792;DHT22;2922;53.482;10.006;2024-03-22T12:39:37;11.20;99.90
5792;DHT22;2922;53.482;10.006;2024-03-22T12:42:03;11.10;99.90
5792;DHT22;2922;53.482;10.006;2024-03-22T12:44:28;11.10;99.90
5792;DHT22;2922;53.482;10.006;2024-03-22T12:46:54;11.10;99.90
5792;DHT22;2922;53.482;10.006;2024-03-22T12:49:20;11.20;99.90
5792;DHT22;2922;53.482;10.006;2024-03-22T12:51:46;11.20;99.90
5792;DHT22;2922;53.482;10.006;2024-03-22T12:54:11;11.20;99.90
5792;DHT22;2922;53.482;10.006;2024-03-22T12:56:39;11.10;99.90
5792;DHT22;2922;53.482;10.006;2024-03-22T12:59:06;11.10;99.90
5792;DHT22;2922;53.482;10.006;2024-03-22T13:01:32;11.10;99.90
5792;DHT22;2922;53.482;10.006;2024-03-22T13:03:58;11.00;99.90
5792;DHT22;2922;53.482;10.006;2024-03-22T13:06:24;11.00;99.90
5792;DHT22;2922;53.482;10.006;2024-03-22T13:08:49;11.00;99.90
5792;DHT22;2922;53.482;10.006;2024-03-22T13:11:16;11.00;99.90
5792;DHT22;2922;53.482;10.006;2024-03-22T13:13:42;10.90;99.90
5792;DHT22;2922;53.482;10.006;2024-03-22T13:16:09;10.90;99.90
5792;DHT22;2922;53.482;10.006;2024-03-22T13:18:36;10.90;99.90
5792;DHT22;2922;53.482;10.006;2024-03-22T13:21:02;10.90;99.90
5792;DHT22;2922;53.482;10.006;2024-03-22T13:23:30;10.90;99.90
5792;DHT22;2922;53.482;10.006;2024-03-22T13:25:55;10.90;99.90
5792;DHT22;2922;53.482;10.006;2024-03-22T13:28:24;10.90;99.90
5792;DHT22;2922;53.482;10.006;2024-03-22T13:30:58;10.80;99.90
5792;DHT22;2922;53.482;10.006;2024-03-22T13:33:24;10.80;99.90
5792;DHT22;2922;53.482;10.006;2024-03-22T13:35:49;10.70;99.90
5792;DHT22;2922;53.482;10.006;2024-03-22T13:38:15;10.70;99.90
5792;DHT22;2922;53.482;10.006;2024-03-22T13:40:41;10.70;99.90
5792;DHT22;2922;53.482;10.006;2024-03-22T13:43:07;10.60;99.90
5792;DHT22;2922;53.482;10.006;2024-03-22T13:45:38;10.60;99.90
5792;DHT22;2922;53.482;10.006;2024-03-22T13:48:10;10.60;99.90
5792;DHT22;2922;53.482;10.006;2024-03-22T13:50:36;10.50;99.90
5792;DHT22;2922;53.482;10.006;2024-03-22T13:53:01;10.50;99.90
5792;DHT22;2922;53.482;10.006;2024-03-22T13:55:27;10.50;99.90
5792;DHT22;2922;53.482;10.006;2024-03-22T13:57:53;10.60;99.90
5792;DHT22;2922;53.482;10.006;2024-03-22T14:00:18;10.50;99.90
5792;DHT22;2922;53.482;10.006;2024-03-22T14:02:44;10.60;99.90
5792;DHT22;2922;53.482;10.006;2024-03-22T14:05:10;10.60;99.90
5792;DHT22;2922;53.482;10.006;2024-03-22T14:07:37;10.70;99.90
5792;DHT22;2922;53.482;10.006;2024-03-22T14:10:06;10.80;99.90
5792;DHT22;2922;53.482;10.006;2024-03-22T14:12:31;10.80;99.90
5792;DHT22;2922;53.482;10.006;2024-03-22T14:14:57;10.80;99.90
5792;DHT22;2922;53.482;10.006;2024-03-22T14:17:24;10.80;99.90
5792;DHT22;2922;53.482;10.006;2024-03-22T14:19:49;10.80;99.90
5792;DHT22;2922;53.482;10.006;2024-03-22T14:22:15;10.80;99.90
5792;DHT22;2922;53.482;10.006;2024-03-22T14:24:40;10.80;99.90
5792;DHT22;2922;53.482;10.006;2024-03-22T14:27:06;10.80;99.90
5792;DHT22;2922;53.482;10.006;2024-03-22T14:29:32;10.70;99.90
5792;DHT22;2922;53.482;10.006;2024-03-22T14:31:57;10.70;99.90
5792;DHT22;2922;53.482;10.006;2024-03-22T14:34:23;10.70;99.90
5792;DHT22;2922;53.482;10.006;2024-03-22T14:36:48;10.60;99.90
5792;DHT22;2922;53.482;10.006;2024-03-22T14:39:14;10.60;99.90
5792;DHT22;2922;53.482;10.006;2024-03-22T14:41:39;10.60;99.90
5792;DHT22;2922;53.482;10.006;2024-03-22T14:44:05;10.50;99.90
5792;DHT22;2922;53.482;10.006;2024-03-22T14:46:30;10.40;99.90
5792;DHT22;2922;53.482;10.006;2024-03-22T14:48:56;10.30;99.90
5792;DHT22;2922;53.482;10.006;2024-03-22T14:51:22;10.30;99.90
5792;DHT22;2922;53.482;10.006;2024-03-22T14:53:47;10.20;99.90
5792;DHT22;2922;53.482;10.006;2024-03-22T14:56:13;10.20;99.90
5792;DHT22;2922;53.482;10.006;2024-03-22T14:58:39;10.20;99.90
5792;DHT22;2922;53.482;10.006;2024-03-22T15:01:05;10.20;99.90
5792;DHT22;2922;53.482;10.006;2024-03-22T15:03:32;10.20;99.90
5792;DHT22;2922;53.482;10.006;2024-03-22T15:05:58;10.10;99.90
5792;DHT22;2922;53.482;10.006;2024-03-22T15:08:27;10.10;99.90
5792;DHT22;2922;53.482;10.006;2024-03-22T15:10:56;10.10;99.90
5792;DHT22;2922;53.482;10.006;2024-03-22T15:13:22;10.20;99.90
5792;DHT22;2922;53.482;10.006;2024-03-22T15:15:55;10.10;99.90
5792;DHT22;2922;53.482;10.006;2024-03-22T15:18:21;10.00;99.90
5792;DHT22;2922;53.482;10.006;2024-03-22T15:20:47;9.90;99.90
5792;DHT22;2922;53.482;10.006;2024-03-22T15:23:14;9.90;99.90
5792;DHT22;2922;53.482;10.006;2024-03-22T15:25:40;9.80;99.90
5792;DHT22;2922;53.482;10.006;2024-03-22T15:28:06;9.90;99.90
5792;DHT22;2922;53.482;10.006;2024-03-22T15:30:32;9.90;99.90
5792;DHT22;2922;53.482;10.006;2024-03-22T15:32:59;9.90;99.90
5792;DHT22;2922;53.482;10.006;2024-03-22T15:35:25;9.80;99.90
5792;DHT22;2922;53.482;10.006;2024-03-22T15:37:51;9.80;99.90
5792;DHT22;2922;53.482;10.006;2024-03-22T15:40:16;9.80;99.90
5792;DHT22;2922;53.482;10.006;2024-03-22T15:42:42;9.80;99.90
5792;DHT22;2922;53.482;10.006;2024-03-22T15:45:08;9.70;99.90
5792;DHT22;2922;53.482;10.006;2024-03-22T15:47:34;9.70;99.90